Time;durP1;ratioP1;P1;durP2;ratioP2;P2;SDS_P1;SDS_P2;PMS_P1;PMS_P2;Temp;Humidity;BMP_temperature;BMP_pressure;BME280_temperature;BME280_humidity;BME280_pressure;Samples;Min_cycle;Max_cycle;Signal;HPM_P1;HPM_P2
2023/07/21 00:02:25;;;;;;;24.92;20.55;;;;;;;14.35;100.00;101134.94;5051281;28;20036;-69
2023/07/21 00:04:50;;;;;;;27.27;21.25;;;;;;;14.35;100.00;101134.94;5052417;28;20025;-69
2023/07/21 00:07:16;;;;;;;24.70;21.60;;;;;;;14.34;100.00;101136.88;5052634;28;20025;-69
2023/07/21 00:09:42;;;;;;;24.92;20.35;;;;;;;14.32;100.00;101133.59;5052482;28;20396;-70
2023/07/21 00:12:08;;;;;;;24.08;20.45;;;;;;;14.30;100.00;101135.91;5052814;28;20025;-69
2023/07/21 00:14:33;;;;;;;25.10;20.92;;;;;;;14.28;100.00;101126.22;5052562;28;20121;-69
2023/07/21 00:17:01;;;;;;;25.15;21.15;;;;;;;14.26;100.00;101131.31;5052290;28;20068;-69
2023/07/21 00:19:26;;;;;;;23.92;20.70;;;;;;;14.25;100.00;101124.13;5050965;28;20017;-69
2023/07/21 00:21:52;;;;;;;25.15;21.50;;;;;;;14.21;100.00;101123.94;5052319;28;20025;-69
2023/07/21 00:24:18;;;;;;;24.38;20.17;;;;;;;14.20;100.00;101128.69;5052431;28;20033;-69
2023/07/21 00:26:45;;;;;;;23.63;20.52;;;;;;;14.16;100.00;101130.47;5052329;28;20033;-68
2023/07/21 00:29:10;;;;;;;23.60;19.67;;;;;;;14.15;100.00;101122.44;5051924;28;20057;-68
2023/07/21 00:31:38;;;;;;;24.48;20.27;;;;;;;14.12;100.00;101123.13;5052193;28;20104;-69
2023/07/21 00:34:04;;;;;;;26.13;20.50;;;;;;;14.10;100.00;101126.19;5052315;28;20131;-69
2023/07/21 00:36:30;;;;;;;25.02;20.48;;;;;;;14.04;100.00;101119.16;5052004;28;20025;-70
2023/07/21 00:38:58;;;;;;;24.55;20.33;;;;;;;13.97;100.00;101124.38;5052145;28;20063;-69
2023/07/21 00:41:24;;;;;;;24.40;20.42;;;;;;;13.95;100.00;101123.88;5052135;28;20108;-69
2023/07/21 00:43:50;;;;;;;24.60;20.60;;;;;;;13.95;100.00;101123.88;5052207;28;20025;-70
2023/07/21 00:46:15;;;;;;;24.23;20.60;;;;;;;13.89;100.00;101126.78;5052026;28;20047;-70
2023/07/21 00:48:41;;;;;;;23.92;20.55;;;;;;;13.85;100.00;101128.59;5051966;28;20033;-70
2023/07/21 00:51:06;;;;;;;25.55;21.83;;;;;;;13.81;100.00;101121.22;5051998;28;20033;-70
2023/07/21 00:53:33;;;;;;;25.90;22.48;;;;;;;13.72;100.00;101113.66;5052023;28;20025;-70
2023/07/21 00:55:59;;;;;;;25.58;21.83;;;;;;;13.66;100.00;101116.91;5052205;28;20408;-70
2023/07/21 00:58:26;;;;;;;24.48;21.50;;;;;;;13.61;100.00;101111.47;5051609;28;20021;-70
2023/07/21 01:00:51;;;;;;;24.90;21.40;;;;;;;13.62;100.00;101110.31;5052147;28;20039;-70
2023/07/21 01:03:18;;;;;;;25.05;21.23;;;;;;;13.65;100.00;101116.06;5051897;28;20037;-69
2023/07/21 01:05:49;;;;;;;23.85;20.48;;;;;;;13.66;100.00;101105.78;5052117;28;20036;-70
2023/07/21 01:08:15;;;;;;;24.30;21.20;;;;;;;13.64;100.00;101100.53;5052144;28;20040;-69
2023/07/21 01:10:41;;;;;;;24.98;20.77;;;;;;;13.57;100.00;101092.66;5050612;28;20472;-70
2023/07/21 01:13:09;;;;;;;24.95;21.13;;;;;;;13.56;100.00;101093.81;5052001;28;20028;-70
2023/07/21 01:15:38;;;;;;;24.13;20.02;;;;;;;13.50;100.00;101089.53;5050403;28;20017;-70
2023/07/21 01:18:04;;;;;;;25.30;20.25;;;;;;;13.52;100.00;101094.75;5050466;28;20033;-70
2023/07/21 01:20:30;;;;;;;24.27;21.15;;;;;;;13.50;100.00;101092.31;5051894;28;20079;-70
2023/07/21 01:23:13;;;;;;;25.70;21.45;;;;;;;13.47;100.00;101095.72;5051749;28;20551;-70
2023/07/21 01:25:42;;;;;;;24.13;20.85;;;;;;;13.48;100.00;101096.53;5050472;28;20037;-70
2023/07/21 01:28:09;;;;;;;24.50;21.33;;;;;;;13.49;100.00;101087.06;5051978;28;20151;-70
2023/07/21 01:30:35;;;;;;;25.63;20.85;;;;;;;13.48;100.00;101088.19;5051858;28;20025;-70
2023/07/21 01:33:03;;;;;;;24.85;20.42;;;;;;;13.46;100.00;101082.97;5051706;28;20050;-70
2023/07/21 01:35:30;;;;;;;24.85;20.52;;;;;;;13.42;100.00;101076.38;5051698;28;20033;-69
2023/07/21 01:37:57;;;;;;;25.50;21.00;;;;;;;13.36;100.00;101078.50;5051632;28;20025;-69
2023/07/21 01:40:25;;;;;;;25.45;21.73;;;;;;;13.33;100.00;101081.91;5051648;28;20104;-70
2023/07/21 01:42:51;;;;;;;25.58;21.38;;;;;;;13.30;100.00;101071.41;5051550;28;20056;-69
2023/07/21 01:45:17;;;;;;;23.88;19.98;;;;;;;13.29;100.00;101071.75;5051661;28;20064;-70
2023/07/21 01:47:45;;;;;;;25.52;21.27;;;;;;;13.25;100.00;101069.59;5051542;28;20124;-70
2023/07/21 01:50:13;;;;;;;24.88;21.80;;;;;;;13.22;100.00;101072.19;5051382;28;20037;-70
2023/07/21 01:52:39;;;;;;;24.55;21.45;;;;;;;13.20;100.00;101066.97;5051505;28;20082;-70
2023/07/21 01:55:14;;;;;;;25.20;22.10;;;;;;;13.17;100.00;101067.59;5051380;28;20111;-69
2023/07/21 01:57:45;;;;;;;25.25;21.77;;;;;;;13.08;100.00;101059.19;5051384;28;20025;-69
2023/07/21 02:00:13;;;;;;;25.27;20.70;;;;;;;13.05;100.00;101068.19;5051437;28;20040;-70
2023/07/21 02:02:40;;;;;;;25.45;21.60;;;;;;;13.00;100.00;101062.75;5051343;28;20032;-70
2023/07/21 02:05:16;;;;;;;24.95;20.35;;;;;;;13.05;100.00;101061.78;5051224;28;20029;-70
2023/07/21 02:07:42;;;;;;;26.00;21.10;;;;;;;13.01;100.00;101058.03;5051080;28;20392;-70
2023/07/21 02:10:07;;;;;;;27.17;22.45;;;;;;;12.99;100.00;101051.97;5051344;28;20021;-70
2023/07/21 02:12:33;;;;;;;26.55;21.48;;;;;;;12.97;100.00;101051.44;5054640;28;20114;-70
2023/07/21 02:14:58;;;;;;;27.00;22.77;;;;;;;12.95;100.00;101060.13;5054913;28;20069;-70
2023/07/21 02:17:23;;;;;;;28.30;22.23;;;;;;;12.92;100.00;101053.25;5054919;28;20055;-70
2023/07/21 02:19:49;;;;;;;27.48;22.50;;;;;;;12.88;100.00;101052.22;5054762;28;20111;-70
2023/07/21 02:22:14;;;;;;;27.23;21.77;;;;;;;12.80;100.00;101059.34;5054798;28;20392;-70
2023/07/21 02:24:39;;;;;;;24.40;20.65;;;;;;;12.78;100.00;101056.09;5053379;28;20412;-70
2023/07/21 02:27:07;;;;;;;26.27;21.92;;;;;;;12.74;100.00;101059.81;5054442;28;20037;-69
2023/07/21 02:29:32;;;;;;;25.05;19.77;;;;;;;12.70;100.00;101054.06;5055004;28;20471;-70
2023/07/21 02:31:59;;;;;;;25.48;20.52;;;;;;;12.64;100.00;101056.16;5054910;28;20103;-70
2023/07/21 02:34:24;;;;;;;24.25;21.30;;;;;;;12.60;100.00;101057.09;5054859;28;20032;-70
2023/07/21 02:36:50;;;;;;;26.95;21.25;;;;;;;12.56;100.00;101054.13;5054698;28;20426;-70
2023/07/21 02:39:15;;;;;;;24.05;20.67;;;;;;;12.55;100.00;101044.16;5054728;28;20025;-70
2023/07/21 02:41:41;;;;;;;24.83;21.20;;;;;;;12.51;100.00;101045.13;5054658;28;20040;-69
2023/07/21 02:44:06;;;;;;;24.08;20.20;;;;;;;12.48;100.00;101041.00;5054759;28;20029;-70
2023/07/21 02:46:32;;;;;;;26.23;21.27;;;;;;;12.43;100.00;101041.94;5054467;28;20032;-70
2023/07/21 02:48:58;;;;;;;24.25;20.48;;;;;;;12.41;100.00;101040.63;5054531;28;20044;-70
2023/07/21 02:51:23;;;;;;;24.73;20.40;;;;;;;12.40;100.00;101039.81;5054538;28;20462;-70
2023/07/21 02:53:49;;;;;;;25.15;21.15;;;;;;;12.36;100.00;101036.00;5054433;28;20071;-70
2023/07/21 02:56:15;;;;;;;25.08;20.65;;;;;;;12.33;100.00;101037.47;5054186;28;20045;-70
2023/07/21 02:58:40;;;;;;;24.67;21.10;;;;;;;12.27;100.00;101032.34;5053018;28;20032;-70
2023/07/21 03:01:05;;;;;;;23.67;20.65;;;;;;;12.26;100.00;101037.06;5054387;28;20017;-70
2023/07/21 03:03:32;;;;;;;24.50;20.92;;;;;;;12.21;100.00;101036.38;5052925;28;20468;-70
2023/07/21 03:05:58;;;;;;;25.05;21.10;;;;;;;12.17;100.00;101030.63;5054360;28;20039;-70
2023/07/21 03:08:28;;;;;;;25.35;20.10;;;;;;;12.15;100.00;101035.66;5054169;28;20021;-70
2023/07/21 03:10:57;;;;;;;23.88;19.10;;;;;;;12.15;100.00;101041.22;5052796;28;20398;-70
2023/07/21 03:13:24;;;;;;;23.15;19.75;;;;;;;12.15;100.00;101049.53;5054189;28;20055;-69
2023/07/21 03:15:50;;;;;;;23.92;20.30;;;;;;;12.15;100.00;101036.47;5054158;28;20060;-71
2023/07/21 03:18:15;;;;;;;25.15;20.92;;;;;;;12.13;100.00;101036.00;5053888;28;20171;-70
2023/07/21 03:20:40;;;;;;;23.75;20.75;;;;;;;12.11;100.00;101040.19;5053934;28;20025;-69
2023/07/21 03:23:07;;;;;;;24.08;21.15;;;;;;;12.07;100.00;101041.94;5053467;28;20029;-70
2023/07/21 03:25:37;;;;;;;25.05;20.80;;;;;;;12.04;100.00;101045.34;5053821;28;20040;-70
2023/07/21 03:28:03;;;;;;;23.33;20.00;;;;;;;12.00;100.00;101043.19;5053665;28;20183;-70
2023/07/21 03:30:28;;;;;;;24.65;21.23;;;;;;;11.93;100.00;101037.22;5053776;28;20111;-70
2023/07/21 03:32:54;;;;;;;23.48;19.75;;;;;;;11.91;100.00;101033.91;5053653;28;20063;-70
2023/07/21 03:35:19;;;;;;;24.13;20.25;;;;;;;11.90;100.00;101037.84;5053432;28;20021;-70
2023/07/21 03:37:45;;;;;;;24.25;21.00;;;;;;;11.85;100.00;101035.97;5053385;28;20370;-70
2023/07/21 03:40:11;;;;;;;24.63;21.27;;;;;;;11.81;100.00;101039.69;5053411;28;20036;-70
2023/07/21 03:42:36;;;;;;;24.63;21.25;;;;;;;11.83;100.00;101041.03;5053284;28;20329;-70
2023/07/21 03:45:03;;;;;;;24.42;19.70;;;;;;;11.89;100.00;101046.47;5051820;28;20032;-69
2023/07/21 03:47:30;;;;;;;23.85;20.67;;;;;;;11.94;100.00;101038.06;5052860;28;20033;-69
2023/07/21 03:49:55;;;;;;;23.98;20.90;;;;;;;11.97;100.00;101040.19;5052567;28;20037;-69
2023/07/21 03:52:21;;;;;;;24.77;21.27;;;;;;;11.93;100.00;101039.19;5052850;28;20028;-69
2023/07/21 03:54:46;;;;;;;25.27;21.15;;;;;;;11.96;100.00;101041.31;5052897;28;20500;-69
2023/07/21 03:57:11;;;;;;;25.70;21.33;;;;;;;11.99;100.00;101047.09;5052565;28;20064;-69
2023/07/21 03:59:38;;;;;;;23.75;20.55;;;;;;;12.01;100.00;101044.03;5052679;28;20111;-69
2023/07/21 04:02:04;;;;;;;24.65;20.00;;;;;;;12.03;100.00;101039.00;5052766;28;20025;-69
2023/07/21 04:04:32;;;;;;;26.10;19.98;;;;;;;12.02;100.00;101035.38;5052533;28;20025;-69
2023/07/21 04:06:57;;;;;;;25.92;19.77;;;;;;;11.99;100.00;101030.47;5051237;28;20132;-69
2023/07/21 04:09:23;;;;;;;24.90;20.33;;;;;;;11.96;100.00;101031.06;5052575;28;20028;-69
2023/07/21 04:11:48;;;;;;;24.90;21.40;;;;;;;11.92;100.00;101024.47;5052456;28;20104;-69
2023/07/21 04:14:13;;;;;;;25.48;21.08;;;;;;;11.91;100.00;101022.84;5052556;28;20495;-69
2023/07/21 04:16:39;;;;;;;27.85;21.77;;;;;;;11.90;100.00;101028.69;5052375;28;20434;-69
2023/07/21 04:19:04;;;;;;;24.55;19.90;;;;;;;11.90;100.00;101031.47;5052301;28;20029;-69
2023/07/21 04:21:29;;;;;;;25.83;20.50;;;;;;;11.94;100.00;101032.50;5052323;28;20075;-69
2023/07/21 04:23:54;;;;;;;26.30;20.10;;;;;;;11.93;100.00;101028.09;5052193;28;20078;-69
2023/07/21 04:26:20;;;;;;;24.10;19.98;;;;;;;11.95;100.00;101023.88;5050919;28;20447;-69
2023/07/21 04:28:45;;;;;;;24.73;19.48;;;;;;;11.99;100.00;101011.06;5051904;28;20049;-69
2023/07/21 04:31:11;;;;;;;25.02;20.00;;;;;;;12.00;100.00;101011.88;5052074;28;20354;-69
2023/07/21 04:33:37;;;;;;;24.65;19.58;;;;;;;12.03;100.00;101008.50;5051163;28;20083;-69
2023/07/21 04:36:04;;;;;;;24.80;19.73;;;;;;;12.04;100.00;101003.75;5052258;28;20029;-69
2023/07/21 04:38:30;;;;;;;24.67;19.65;;;;;;;12.03;100.00;101002.94;5051852;28;20040;-69
2023/07/21 04:40:55;;;;;;;23.95;19.10;;;;;;;12.02;100.00;101004.88;5051698;28;20036;-69
2023/07/21 04:43:21;;;;;;;25.48;19.50;;;;;;;12.06;100.00;101009.81;5051662;28;20116;-68
2023/07/21 04:45:46;;;;;;;24.50;19.98;;;;;;;12.09;100.00;100998.09;5051538;28;20029;-69
2023/07/21 04:48:12;;;;;;;24.08;18.88;;;;;;;12.15;100.00;100994.06;5051479;28;20104;-69
2023/07/21 04:50:37;;;;;;;23.80;19.02;;;;;;;12.22;100.00;101008.31;5051767;28;20028;-69
2023/07/21 04:53:03;;;;;;;24.80;19.83;;;;;;;12.27;100.00;100999.88;5051771;28;20072;-69
2023/07/21 04:55:28;;;;;;;24.33;19.67;;;;;;;12.30;100.00;101012.31;5051701;28;20414;-69
2023/07/21 04:57:54;;;;;;;24.00;19.95;;;;;;;12.34;100.00;101004.97;5051355;28;20433;-69
2023/07/21 05:00:19;;;;;;;24.88;20.63;;;;;;;12.43;100.00;101013.38;5051446;28;20032;-69
2023/07/21 05:02:45;;;;;;;26.30;20.17;;;;;;;12.51;100.00;101006.25;5051349;28;20025;-69
2023/07/21 05:05:10;;;;;;;25.05;20.13;;;;;;;12.57;100.00;101005.81;5050045;28;20063;-69
2023/07/21 05:07:36;;;;;;;24.17;19.80;;;;;;;12.75;100.00;101005.94;5050296;28;20063;-70
2023/07/21 05:10:02;;;;;;;26.17;20.70;;;;;;;12.84;100.00;101004.03;5051421;28;20114;-70
2023/07/21 05:12:27;;;;;;;24.85;20.42;;;;;;;12.98;100.00;101008.66;5051404;28;20033;-70
2023/07/21 05:14:52;;;;;;;25.90;21.15;;;;;;;13.11;100.00;101010.53;5051414;28;20108;-69
2023/07/21 05:17:18;;;;;;;24.92;20.45;;;;;;;13.22;100.00;101011.91;5051413;28;20047;-68
2023/07/21 05:19:44;;;;;;;24.77;19.98;;;;;;;13.32;100.00;101018.31;5049727;28;20048;-69
2023/07/21 05:22:10;;;;;;;24.70;20.42;;;;;;;13.38;100.00;101008.69;5051493;28;20345;-69
2023/07/21 05:24:35;;;;;;;24.40;20.55;;;;;;;13.45;100.00;101013.81;5051445;28;20086;-69
2023/07/21 05:27:01;;;;;;;24.67;21.30;;;;;;;13.48;100.00;101010.38;5051156;28;20095;-69
2023/07/21 05:29:27;;;;;;;26.33;20.92;;;;;;;13.50;100.00;101008.09;5051204;28;20013;-69
2023/07/21 05:31:52;;;;;;;26.45;21.83;;;;;;;13.61;100.00;101006.66;5051131;28;20149;-69
2023/07/21 05:34:18;;;;;;;26.85;21.23;;;;;;;13.77;100.00;101004.25;5051263;28;20064;-68
2023/07/21 05:36:44;;;;;;;24.50;20.80;;;;;;;13.90;100.00;101008.03;5050994;28;20475;-69
2023/07/21 05:39:09;;;;;;;27.40;21.20;;;;;;;14.03;100.00;101020.97;5051151;28;20480;-68
2023/07/21 05:41:34;;;;;;;27.83;20.95;;;;;;;14.16;100.00;101016.41;5051006;28;20574;-69
2023/07/21 05:44:00;;;;;;;25.70;21.02;;;;;;;14.27;100.00;101008.56;5049570;28;20039;-69
2023/07/21 05:46:25;;;;;;;27.90;21.88;;;;;;;14.29;100.00;101013.78;5054575;28;20017;-69
2023/07/21 05:48:50;;;;;;;28.60;22.58;;;;;;;14.26;100.00;101006.91;5055021;28;20066;-68
2023/07/21 05:51:17;;;;;;;26.67;21.55;;;;;;;14.28;100.00;101009.34;5055087;28;20020;-69
2023/07/21 05:53:43;;;;;;;27.70;21.80;;;;;;;14.35;100.00;101001.34;5055004;28;20353;-69
2023/07/21 05:56:08;;;;;;;26.02;20.90;;;;;;;14.48;100.00;101010.69;5054975;28;20036;-69
2023/07/21 05:58:37;;;;;;;27.95;21.10;;;;;;;14.56;100.00;101011.78;5055248;28;20025;-69
2023/07/21 06:01:03;;;;;;;26.63;20.30;;;;;;;14.71;100.00;101011.34;5054811;28;20399;-69
2023/07/21 06:03:28;;;;;;;26.40;20.98;;;;;;;14.74;100.00;101009.84;5054813;28;20495;-69
2023/07/21 06:05:54;;;;;;;27.35;22.85;;;;;;;14.75;100.00;101011.47;5054873;28;20025;-69
2023/07/21 06:08:19;;;;;;;26.27;21.63;;;;;;;14.86;100.00;101015.56;5054803;28;20068;-68
2023/07/21 06:10:44;;;;;;;26.25;21.88;;;;;;;14.87;100.00;101017.19;5054826;28;20025;-68
2023/07/21 06:13:10;;;;;;;25.42;21.42;;;;;;;14.94;100.00;101014.72;5054631;28;20488;-68
2023/07/21 06:15:36;;;;;;;24.85;21.73;;;;;;;15.04;100.00;101018.28;5054588;28;20068;-69
2023/07/21 06:18:03;;;;;;;26.20;22.00;;;;;;;15.16;100.00;101015.63;5054790;28;20017;-68
2023/07/21 06:20:28;;;;;;;26.98;23.30;;;;;;;15.27;100.00;101011.31;5054578;28;20024;-68
2023/07/21 06:22:54;;;;;;;26.73;22.30;;;;;;;15.46;100.00;101018.44;5054569;28;20025;-68
2023/07/21 06:25:19;;;;;;;26.80;22.20;;;;;;;15.56;100.00;101014.47;5054349;28;20082;-69
2023/07/21 06:27:47;;;;;;;26.02;23.00;;;;;;;15.64;100.00;101015.56;5054315;28;20046;-68
2023/07/21 06:30:13;;;;;;;27.30;22.02;;;;;;;15.70;100.00;101017.03;5054353;28;20033;-69
2023/07/21 06:32:40;;;;;;;27.25;22.77;;;;;;;15.75;100.00;101020.44;5054177;28;20039;-68
2023/07/21 06:35:07;;;;;;;28.05;22.48;;;;;;;15.92;100.00;101017.91;5054262;28;20108;-69
2023/07/21 06:37:33;;;;;;;29.25;23.58;;;;;;;16.10;100.00;101011.06;5054168;28;20036;-69
2023/07/21 06:39:58;;;;;;;30.85;26.45;;;;;;;16.21;100.00;101014.25;5054333;28;20029;-68
2023/07/21 06:42:24;;;;;;;29.63;24.98;;;;;;;16.28;100.00;101008.91;5054032;28;20032;-69
2023/07/21 06:44:50;;;;;;;28.83;25.10;;;;;;;16.35;100.00;101011.16;5053845;28;20033;-68
2023/07/21 06:47:16;;;;;;;30.58;26.77;;;;;;;16.43;100.00;101003.88;5053846;28;20021;-69
2023/07/21 06:49:41;;;;;;;28.70;25.13;;;;;;;16.46;98.20;101001.22;5053926;28;20115;-68
2023/07/21 06:52:08;;;;;;;27.25;23.63;;;;;;;16.51;97.07;101009.38;5053796;28;20160;-69
2023/07/21 06:54:35;;;;;;;28.05;23.17;;;;;;;16.56;96.72;101007.53;5053815;28;20032;-68
2023/07/21 06:57:00;;;;;;;26.88;21.33;;;;;;;16.65;96.59;101002.69;5052904;28;20090;-69
2023/07/21 06:59:26;;;;;;;27.13;22.50;;;;;;;16.69;96.62;101007.25;5053542;28;20119;-68
2023/07/21 07:01:52;;;;;;;25.95;22.15;;;;;;;16.80;95.89;101006.81;5053607;28;20032;-68
2023/07/21 07:04:17;;;;;;;28.38;22.38;;;;;;;16.78;93.56;101007.13;5053514;28;20468;-68
2023/07/21 07:06:42;;;;;;;26.85;22.50;;;;;;;16.78;94.68;101006.31;5053395;28;20044;-68
2023/07/21 07:09:08;;;;;;;27.35;21.73;;;;;;;16.87;94.86;100998.66;5051846;28;20028;-68
2023/07/21 07:11:34;;;;;;;25.30;21.60;;;;;;;17.00;95.66;101005.94;5053380;28;20032;-68
2023/07/21 07:13:59;;;;;;;26.10;21.20;;;;;;;17.13;92.39;101001.19;5053205;28;20043;-69
2023/07/21 07:16:25;;;;;;;26.88;20.83;;;;;;;17.25;91.61;100997.59;5053179;28;20036;-68
2023/07/21 07:18:50;;;;;;;25.42;20.70;;;;;;;17.30;91.70;101000.16;5053115;28;20029;-67
2023/07/21 07:21:16;;;;;;;25.63;20.65;;;;;;;17.37;91.22;101001.56;5051546;28;20540;-67
2023/07/21 07:23:41;;;;;;;24.50;19.88;;;;;;;17.43;91.02;101005.75;5052964;28;20120;-67
2023/07/21 07:26:06;;;;;;;26.83;20.75;;;;;;;17.51;91.42;101002.03;5052729;28;20029;-67
2023/07/21 07:28:32;;;;;;;25.77;19.60;;;;;;;17.58;90.03;100999.44;5052760;28;20053;-67
2023/07/21 07:31:03;;;;;;;24.02;18.83;;;;;;;17.61;87.55;101001.56;5052988;28;20458;-68
2023/07/21 07:33:28;;;;;;;23.65;18.58;;;;;;;17.68;87.68;101000.16;5053057;28;20025;-67
2023/07/21 07:35:53;;;;;;;23.35;19.10;;;;;;;17.74;88.23;100998.75;5052807;28;20029;-68
2023/07/21 07:38:23;;;;;;;23.77;18.05;;;;;;;17.86;88.10;101001.50;5052624;28;20420;-67
2023/07/21 07:40:49;;;;;;;23.55;17.58;;;;;;;18.00;86.51;101005.97;5052865;28;20017;-68
2023/07/21 07:43:15;;;;;;;26.33;17.98;;;;;;;18.09;85.49;101007.44;5052655;28;20040;-68
2023/07/21 07:45:40;;;;;;;23.67;17.95;;;;;;;18.13;84.46;101007.56;5052612;28;20029;-68
2023/07/21 07:48:08;;;;;;;25.17;18.08;;;;;;;18.12;83.17;101005.94;5051181;28;20041;-68
2023/07/21 07:50:41;;;;;;;23.50;17.27;;;;;;;18.26;84.99;100999.13;5052618;28;20032;-67
2023/07/21 07:53:07;;;;;;;24.10;16.85;;;;;;;18.40;82.17;101002.34;5051331;28;20397;-67
2023/07/21 07:55:39;;;;;;;22.55;16.20;;;;;;;18.42;80.72;101007.59;5052565;28;20115;-67
2023/07/21 07:58:05;;;;;;;22.67;15.88;;;;;;;18.47;81.48;101015.72;5050969;28;20033;-68
2023/07/21 08:00:32;;;;;;;21.70;16.20;;;;;;;18.54;78.19;101008.34;5052390;28;20488;-67
2023/07/21 08:02:57;;;;;;;21.77;15.43;;;;;;;18.64;78.27;101014.59;5052390;28;20053;-67
2023/07/21 08:05:23;;;;;;;22.45;16.33;;;;;;;18.67;79.54;101011.09;5052295;28;20483;-68
2023/07/21 08:07:48;;;;;;;22.42;15.90;;;;;;;18.72;79.04;101008.03;5051831;28;20031;-67
2023/07/21 08:10:14;;;;;;;21.70;15.20;;;;;;;18.68;77.55;101001.53;5051505;28;20013;-68
2023/07/21 08:12:39;;;;;;;22.52;15.77;;;;;;;18.69;79.42;101001.16;5052214;28;20032;-68
2023/07/21 08:15:06;;;;;;;22.63;17.23;;;;;;;18.68;80.46;100999.53;5052060;28;20067;-67
2023/07/21 08:17:31;;;;;;;23.35;16.40;;;;;;;18.65;80.31;100997.47;5050848;28;20067;-69
2023/07/21 08:19:56;;;;;;;22.10;16.40;;;;;;;18.68;80.89;101002.31;5052050;28;20057;-68
2023/07/21 08:22:22;;;;;;;21.25;16.73;;;;;;;18.69;79.25;100995.56;5052145;28;20401;-69
2023/07/21 08:24:47;;;;;;;21.52;16.33;;;;;;;18.70;78.92;100997.19;5052009;28;20047;-69
2023/07/21 08:27:12;;;;;;;22.10;16.25;;;;;;;18.73;79.40;100997.66;5051868;28;20142;-69
2023/07/21 08:29:38;;;;;;;21.80;15.55;;;;;;;18.76;78.17;100999.72;5050735;28;20384;-69
2023/07/21 08:32:04;;;;;;;20.75;14.20;;;;;;;18.86;77.00;101008.44;5052034;28;20033;-68
2023/07/21 08:34:29;;;;;;;19.50;13.68;;;;;;;18.88;76.40;101008.06;5050424;28;20157;-68
2023/07/21 08:36:54;;;;;;;20.92;14.68;;;;;;;18.99;77.58;101003.59;5051724;28;20021;-68
2023/07/21 08:39:20;;;;;;;21.25;14.73;;;;;;;19.03;74.33;101006.47;5051704;28;20035;-69
2023/07/21 08:41:47;;;;;;;20.58;15.23;;;;;;;18.98;73.77;101010.38;5051663;28;20075;-68
2023/07/21 08:44:15;;;;;;;20.67;14.20;;;;;;;18.95;73.14;101005.47;5051493;28;20071;-68
2023/07/21 08:46:40;;;;;;;21.55;14.57;;;;;;;18.93;73.56;101005.03;5051942;28;20041;-68
2023/07/21 08:49:06;;;;;;;21.00;14.75;;;;;;;18.98;74.21;101007.56;5050184;28;20094;-69
2023/07/21 08:51:31;;;;;;;19.42;13.48;;;;;;;19.05;74.07;101006.13;5050153;28;20033;-68
2023/07/21 08:53:56;;;;;;;20.35;14.20;;;;;;;19.08;75.47;101011.00;5051349;28;20104;-69
2023/07/21 08:56:21;;;;;;;20.10;13.45;;;;;;;19.12;72.85;101006.31;5051381;28;20036;-67
2023/07/21 08:58:47;;;;;;;20.02;13.40;;;;;;;19.20;70.56;101005.31;5051460;28;20373;-68
2023/07/21 09:01:13;;;;;;;20.88;13.55;;;;;;;19.17;71.37;101004.06;5051515;28;20020;-68
2023/07/21 09:03:44;;;;;;;21.42;13.90;;;;;;;19.11;71.66;101004.69;5051421;28;20028;-69
2023/07/21 09:06:12;;;;;;;21.70;14.43;;;;;;;19.04;71.36;101010.09;5051421;28;20147;-69
2023/07/21 09:08:37;;;;;;;19.88;12.50;;;;;;;18.97;68.12;101008.75;5051490;28;20040;-68
2023/07/21 09:11:03;;;;;;;20.40;13.00;;;;;;;18.97;70.42;101011.53;5051598;28;20381;-69
2023/07/21 09:13:30;;;;;;;20.67;13.40;;;;;;;18.96;70.36;101011.91;5051468;28;20079;-68
2023/07/21 09:15:57;;;;;;;20.20;13.35;;;;;;;18.94;72.85;101000.22;5050077;28;20049;-69
2023/07/21 09:18:29;;;;;;;19.58;13.05;;;;;;;18.95;69.58;101002.66;5051383;28;20021;-68
2023/07/21 09:20:55;;;;;;;19.95;13.30;;;;;;;19.05;70.90;101006.13;5051142;28;20028;-69
2023/07/21 09:23:22;;;;;;;20.15;12.77;;;;;;;19.20;71.32;101001.69;5051423;28;20444;-69
2023/07/21 09:25:54;;;;;;;20.88;13.05;;;;;;;19.39;69.60;101013.00;5051447;28;20064;-67
2023/07/21 09:28:21;;;;;;;19.23;12.00;;;;;;;19.49;66.83;101012.44;5051192;28;20055;-68
2023/07/21 09:30:52;;;;;;;17.55;10.75;;;;;;;19.56;64.99;101003.41;5051218;28;20289;-68
2023/07/21 09:33:24;;;;;;;17.60;10.77;;;;;;;19.64;62.78;101001.59;5051156;28;20040;-69
2023/07/21 09:36:10;;;;;;;18.73;11.43;;;;;;;19.72;64.41;101000.56;5051039;28;20025;-68
2023/07/21 09:38:38;;;;;;;17.52;10.73;;;;;;;19.97;64.15;100997.53;5050471;28;20037;-68
2023/07/21 09:41:12;;;;;;;19.50;11.10;;;;;;;20.27;63.34;100988.53;5050759;28;20087;-68
2023/07/21 09:43:38;;;;;;;18.98;12.07;;;;;;;20.55;61.86;100995.94;5050846;28;20029;-68
2023/07/21 09:46:07;;;;;;;17.92;11.40;;;;;;;20.80;59.78;100996.44;5050770;28;20035;-68
2023/07/21 09:48:33;;;;;;;19.15;11.43;;;;;;;21.10;61.20;100983.69;5050806;28;20029;-68
2023/07/21 09:51:04;;;;;;;18.88;11.13;;;;;;;21.35;60.01;100982.09;5050792;28;20017;-68
2023/07/21 09:53:34;;;;;;;18.27;11.75;;;;;;;21.50;57.59;100985.16;5050905;28;20029;-68
2023/07/21 09:56:01;;;;;;;18.58;11.35;;;;;;;21.51;57.33;100981.16;5050533;28;20033;-68
2023/07/21 09:58:29;;;;;;;19.63;12.02;;;;;;;21.28;56.30;100967.94;5049037;28;20476;-69
2023/07/21 10:00:59;;;;;;;19.55;12.25;;;;;;;21.16;58.17;100963.31;5050543;28;20033;-69
2023/07/21 10:03:26;;;;;;;19.38;12.30;;;;;;;20.81;58.35;100983.19;5050706;28;20033;-69
2023/07/21 10:05:52;;;;;;;19.83;11.45;;;;;;;20.72;58.48;100981.41;5049184;28;20029;-68
2023/07/21 10:08:18;;;;;;;19.45;12.85;;;;;;;20.68;58.58;100979.72;5050477;28;20119;-69
2023/07/21 10:10:44;;;;;;;18.95;12.68;;;;;;;20.63;60.56;100983.63;5050537;28;20171;-69
2023/07/21 10:13:11;;;;;;;19.67;13.75;;;;;;;20.36;60.59;100974.25;5050375;28;20029;-69
2023/07/21 10:15:37;;;;;;;21.27;13.55;;;;;;;20.26;60.18;100967.25;5050567;28;20025;-68
2023/07/21 10:18:06;;;;;;;19.48;13.18;;;;;;;20.29;60.92;100974.94;5050610;28;20048;-69
2023/07/21 10:20:49;;;;;;;20.45;12.90;;;;;;;20.19;61.29;100969.91;5050490;28;20036;-70
2023/07/21 10:23:30;;;;;;;19.67;12.70;;;;;;;20.30;61.63;100978.56;5050485;28;20039;-68
2023/07/21 10:25:59;;;;;;;19.15;12.40;;;;;;;20.24;62.28;100976.06;5050350;28;20036;-69
2023/07/21 10:28:31;;;;;;;19.38;13.45;;;;;;;20.22;62.42;100981.22;5048809;28;20146;-67
2023/07/21 10:31:29;;;;;;;21.73;15.32;;;;;;;20.13;63.97;100972.22;5050522;28;20028;-69
2023/07/21 10:34:06;;;;;;;22.27;14.20;;;;;;;20.10;65.65;100973.78;5054076;28;20044;-68
2023/07/21 10:36:57;;;;;;;22.15;15.20;;;;;;;19.98;66.39;100982.31;5054005;28;20029;-68
2023/07/21 10:39:27;;;;;;;21.83;14.30;;;;;;;19.82;67.44;100964.69;5054098;28;20020;-69
2023/07/21 10:41:55;;;;;;;21.77;14.90;;;;;;;19.83;68.38;100969.94;5053941;28;20025;-69
2023/07/21 10:44:21;;;;;;;22.15;16.42;;;;;;;20.00;68.14;100968.72;5053674;28;20037;-69
2023/07/21 10:46:48;;;;;;;23.67;16.48;;;;;;;20.24;67.36;100964.00;5053721;28;20029;-68
2023/07/21 10:49:16;;;;;;;21.48;15.15;;;;;;;20.46;67.01;100967.25;5053656;28;20368;-69
2023/07/21 10:51:44;;;;;;;22.30;15.15;;;;;;;20.62;65.19;100962.34;5052437;28;20036;-67
2023/07/21 10:54:10;;;;;;;21.90;15.32;;;;;;;20.80;62.59;100959.06;5053688;28;20061;-69
2023/07/21 10:56:47;;;;;;;23.15;15.70;;;;;;;20.98;64.91;100965.81;5053588;28;20021;-70
2023/07/21 10:59:15;;;;;;;23.38;15.85;;;;;;;21.07;63.16;100971.19;5052260;28;20029;-69
2023/07/21 11:01:41;;;;;;;22.35;15.40;;;;;;;21.00;62.74;100960.63;5053592;28;20067;-68
2023/07/21 11:04:08;;;;;;;21.58;15.18;;;;;;;20.98;64.15;100953.78;5053398;28;20705;-69